Time;durP1;ratioP1;P1;durP2;ratioP2;P2;SDS_P1;SDS_P2;PMS_P1;PMS_P2;Temp;Humidity;BMP_temperature;BMP_pressure;BME280_temperature;BME280_humidity;BME280_pressure;Samples;Min_cycle;Max_cycle;Signal;HPM_P1;HPM_P2
2022/08/24 00:00:11;;;;;;;3.97;2.10;;;18.00;99.90;;;17.42;100.00;101250.03;3909294;30;20037;-75
2022/08/24 00:02:12;;;;;;;4.88;1.75;;;18.00;99.90;;;17.47;100.00;101258.31;3907726;30;20033;-75
2022/08/24 00:04:13;;;;;;;7.40;2.55;;;18.00;99.90;;;17.48;100.00;101263.44;3896408;30;20102;-75
2022/08/24 00:06:18;;;;;;;3.88;2.00;;;18.00;99.90;;;17.51;100.00;101270.25;3909037;30;20041;-75
2022/08/24 00:08:19;;;;;;;4.10;1.70;;;18.00;99.90;;;17.32;100.00;101234.34;3907933;30;20044;-75
2022/08/24 00:10:21;;;;;;;4.85;2.15;;;18.00;99.90;;;17.29;100.00;101226.72;3908673;30;20041;-75
2022/08/24 00:12:22;;;;;;;4.70;2.05;;;18.00;99.90;;;17.28;100.00;101225.06;3908071;30;20037;-75
2022/08/24 00:14:23;;;;;;;4.55;2.08;;;18.00;99.90;;;17.31;100.00;101239.84;3908924;30;20052;-75
2022/08/24 00:16:24;;;;;;;2.97;2.00;;;17.90;99.90;;;17.22;100.00;101230.31;3907627;30;20033;-75
2022/08/24 00:18:26;;;;;;;6.10;2.30;;;17.90;99.90;;;17.25;100.00;101236.09;3904775;30;20158;-75
2022/08/24 00:20:28;;;;;;;3.95;1.83;;;17.90;99.90;;;17.26;100.00;101237.78;3922179;30;20067;-75
2022/08/24 00:22:29;;;;;;;5.22;1.98;;;17.90;99.90;;;17.28;100.00;101241.06;3905820;30;20033;-75
2022/08/24 00:24:29;;;;;;;4.25;1.90;;;17.90;99.90;;;17.27;100.00;101235.91;3908720;30;20025;-75
2022/08/24 00:26:31;;;;;;;4.40;2.13;;;17.90;99.90;;;17.39;100.00;101253.91;3907346;30;20120;-75
2022/08/24 00:28:32;;;;;;;4.38;1.75;;;17.90;99.90;;;17.38;100.00;101260.25;3907075;30;20040;-75
2022/08/24 00:30:34;;;;;;;5.60;2.17;;;17.90;99.90;;;17.27;100.00;101233.22;3908738;30;20040;-75
2022/08/24 00:32:36;;;;;;;7.13;2.47;;;17.90;99.90;;;17.27;100.00;101239.41;3907647;30;20025;-75
2022/08/24 00:34:37;;;;;;;5.22;2.00;;;18.00;99.90;;;17.33;100.00;101237.81;3903931;30;20121;-75
2022/08/24 00:36:40;;;;;;;3.67;2.00;;;18.00;99.90;;;17.23;100.00;101224.81;3906482;30;20128;-75
2022/08/24 00:38:41;;;;;;;4.22;1.65;;;17.90;99.90;;;17.41;100.00;101261.72;3908722;30;20098;-75
2022/08/24 00:40:46;;;;;;;8.77;2.30;;;17.90;99.90;;;17.17;100.00;101221.03;3907082;30;20522;-75
2022/08/24 00:42:49;;;;;;;2.78;1.63;;;17.90;99.90;;;17.29;100.00;101233.91;3904003;30;20037;-75
2022/08/24 00:44:50;;;;;;;4.05;1.88;;;17.90;99.90;;;17.24;100.00;101234.44;3892909;30;20052;-75
2022/08/24 00:47:06;;;;;;;3.50;2.00;;;17.90;99.90;;;17.33;100.00;101237.81;3908187;30;20037;-75
2022/08/24 00:49:28;;;;;;;4.63;2.03;;;17.90;99.90;;;17.31;100.00;101245.19;3907134;30;20041;-75
2022/08/24 00:51:37;;;;;;;7.15;1.90;;;17.80;99.90;;;17.21;100.00;101231.31;3897583;30;20490;-75
2022/08/24 00:53:45;;;;;;;4.05;1.85;;;17.80;99.90;;;17.01;100.00;101204.44;3907234;30;20513;-75
2022/08/24 00:55:53;;;;;;;3.47;1.83;;;17.80;99.90;;;17.16;100.00;101231.88;3904238;30;20466;-75
2022/08/24 00:58:14;;;;;;;4.20;1.70;;;17.70;99.90;;;17.02;100.00;101211.44;3906645;30;20037;-75
2022/08/24 01:00:27;;;;;;;6.35;2.15;;;17.70;99.90;;;17.14;100.00;101239.25;3901447;30;20560;-75
2022/08/24 01:02:37;;;;;;;3.72;1.80;;;17.70;99.90;;;16.92;100.00;101206.38;3907121;30;20032;-75
2022/08/24 01:05:04;;;;;;;5.47;2.38;;;17.70;99.90;;;16.92;100.00;101203.72;3908319;30;20043;-75
2022/08/24 01:07:05;;;;;;;4.40;2.15;;;17.60;99.90;;;16.93;100.00;101210.72;3904759;30;20034;-75
2022/08/24 01:09:06;;;;;;;6.70;2.50;;;17.60;99.90;;;17.00;100.00;101222.25;3907432;30;20043;-75
2022/08/24 01:11:16;;;;;;;3.55;2.10;;;17.60;99.90;;;16.89;100.00;101208.59;3906795;30;20040;-75
2022/08/24 01:13:19;;;;;;;4.30;2.10;;;17.60;99.90;;;16.86;100.00;101207.13;3902557;30;20613;-74
2022/08/24 01:15:21;;;;;;;6.57;2.60;;;17.60;99.90;;;16.87;100.00;101210.63;3906972;30;20410;-75
2022/08/24 01:19:54;;;;;;;5.22;2.55;;;17.50;99.90;;;16.88;100.00;101212.25;3905023;30;20592;-75
2022/08/24 01:22:22;;;;;;;5.25;2.05;;;17.50;99.90;;;16.99;100.00;101230.47;3904834;30;20040;-75
2022/08/24 01:24:23;;;;;;;6.05;2.58;;;17.50;99.90;;;16.84;100.00;101208.31;3908138;30;20079;-75
2022/08/24 01:26:36;;;;;;;6.85;2.65;;;17.50;99.90;;;16.78;100.00;101201.06;3907659;30;20045;-75
2022/08/24 01:28:39;;;;;;;4.35;2.00;;;17.50;99.90;;;16.79;100.00;101197.38;3905774;30;20041;-75
2022/08/24 01:30:42;;;;;;;6.77;2.10;;;17.50;99.90;;;16.95;100.00;101229.16;3898644;30;20490;-75
2022/08/24 01:33:00;;;;;;;6.28;2.40;;;17.50;99.90;;;16.81;100.00;101195.38;3906897;30;20036;-75
2022/08/24 01:35:01;;;;;;;8.30;2.65;;;17.50;99.90;;;16.75;100.00;101196.09;3905086;30;20112;-75
2022/08/24 01:37:03;;;;;;;3.65;2.20;;;17.50;99.90;;;16.79;100.00;101205.38;3906693;30;20083;-75
2022/08/24 01:39:39;;;;;;;5.50;2.47;;;17.50;99.90;;;16.92;100.00;101216.22;3899023;30;20029;-75
2022/08/24 01:41:40;;;;;;;5.47;2.25;;;17.50;99.90;;;16.73;100.00;101198.09;3918149;30;20048;-75
2022/08/24 01:43:41;;;;;;;4.70;1.92;;;17.40;99.90;;;16.78;100.00;101203.72;3906762;30;20056;-75
2022/08/24 01:45:42;;;;;;;4.95;2.53;;;17.40;99.90;;;16.72;100.00;101202.63;3900515;30;20062;-75
2022/08/24 01:47:44;;;;;;;5.38;2.72;;;17.40;99.90;;;16.69;100.00;101199.50;3921090;30;20037;-75
2022/08/24 01:49:47;;;;;;;5.70;2.78;;;17.40;99.90;;;16.85;100.00;101228.59;3906375;30;20052;-75
2022/08/24 01:51:49;;;;;;;3.72;2.22;;;17.40;99.90;;;16.60;100.00;101188.13;3906636;30;20465;-75
2022/08/24 01:53:49;;;;;;;6.13;2.72;;;17.40;99.90;;;16.56;100.00;101187.66;3906464;30;20057;-75
2022/08/24 01:55:50;;;;;;;6.85;2.33;;;17.40;99.90;;;16.68;100.00;101209.34;3905988;30;20033;-75
2022/08/24 01:57:51;;;;;;;3.63;2.10;;;17.30;99.90;;;16.70;100.00;101219.78;3906282;30;20045;-75
2022/08/24 01:59:52;;;;;;;5.75;2.58;;;17.30;99.90;;;16.66;100.00;101208.69;3898464;30;20526;-75
2022/08/24 02:02:01;;;;;;;6.78;2.20;;;17.30;99.90;;;16.78;100.00;101228.53;3907403;30;20136;-75
2022/08/24 02:04:05;;;;;;;5.05;2.92;;;17.30;99.90;;;16.69;100.00;101205.66;3906043;30;20029;-75
2022/08/24 02:06:06;;;;;;;;;;;17.30;99.90;;;16.70;100.00;101225.13;3907025;30;20036;-75
2022/08/24 02:08:07;;;;;;;3.15;2.42;;;17.30;99.90;;;16.63;100.00;101214.41;3899813;30;19915;-75
2022/08/24 02:10:12;;;;;;;6.30;2.88;;;17.30;99.90;;;16.71;100.00;101208.97;3920290;30;20039;-75
2022/08/24 02:12:14;;;;;;;5.32;2.55;;;17.40;99.90;;;16.82;100.00;101218.31;3907243;30;20037;-75
2022/08/24 02:14:15;;;;;;;3.45;2.03;;;17.50;99.90;;;16.83;100.00;101207.50;3906181;30;20091;-75
2022/08/24 02:16:16;;;;;;;4.38;1.75;;;17.50;99.90;;;16.87;100.00;101189.31;3898635;30;20041;-75
2022/08/24 02:18:16;;;;;;;6.95;2.40;;;17.60;99.90;;;16.96;100.00;101199.69;3907330;30;20099;-75
2022/08/24 02:20:20;;;;;;;3.47;1.58;;;17.70;99.90;;;17.09;100.00;101213.16;3907190;30;20091;-75
2022/08/24 02:22:21;;;;;;;6.43;1.90;;;17.80;99.90;;;17.16;100.00;101210.56;3906025;30;20513;-75
2022/08/24 02:24:22;;;;;;;4.32;2.58;;;17.80;99.90;;;17.13;100.00;101193.09;3899745;30;20033;-75
2022/08/24 02:26:23;;;;;;;5.20;1.80;;;17.90;99.90;;;17.31;100.00;101215.84;3906933;30;20064;-75
2022/08/24 02:28:24;;;;;;;3.50;1.60;;;18.00;99.90;;;17.31;100.00;101195.34;3905985;30;20041;-75
2022/08/24 02:30:27;;;;;;;2.63;1.70;;;18.10;99.90;;;17.40;100.00;101204.06;3909862;30;20028;-75
2022/08/24 02:32:28;;;;;;;3.15;1.70;;;18.10;99.90;;;17.59;100.00;101228.28;3906290;30;20044;-75
2022/08/24 02:34:29;;;;;;;3.47;1.38;;;18.20;99.90;;;17.55;100.00;101216.38;3902369;30;20044;-75
2022/08/24 02:36:30;;;;;;;5.75;2.15;;;18.20;99.90;;;17.56;100.00;101206.53;3906965;30;20037;-75
2022/08/24 02:38:31;;;;;;;2.83;1.80;;;18.20;99.90;;;17.66;100.00;101223.03;3907222;30;20064;-75
